sensor_id;sensor_type;location;lat;lon;timestamp;P1;durP1;ratioP1;P2;durP2;ratioP2
17636;SDS011;8937;51.236;6.794;2023-03-03T00:05:26;15.93;;;8.37;;
17636;SDS011;8937;51.236;6.794;2023-03-03T00:13:48;15.77;;;8.67;;
17636;SDS011;8937;51.236;6.794;2023-03-03T00:22:15;16.37;;;8.53;;
17636;SDS011;8937;51.236;6.794;2023-03-03T00:30:38;15.33;;;8.97;;
17636;SDS011;8937;51.236;6.794;2023-03-03T00:39:12;15.23;;;7.87;;
17636;SDS011;8937;51.236;6.794;2023-03-03T00:47:37;16.33;;;8.67;;
17636;SDS011;8937;51.236;6.794;2023-03-03T00:56:00;20.80;;;10.90;;
17636;SDS011;8937;51.236;6.794;2023-03-03T01:04:21;16.20;;;8.70;;
17636;SDS011;8937;51.236;6.794;2023-03-03T01:12:44;16.47;;;9.37;;
17636;SDS011;8937;51.236;6.794;2023-03-03T01:21:07;17.13;;;8.77;;
17636;SDS011;8937;51.236;6.794;2023-03-03T01:29:29;18.93;;;8.00;;
17636;SDS011;8937;51.236;6.794;2023-03-03T01:37:51;18.20;;;9.13;;
17636;SDS011;8937;51.236;6.794;2023-03-03T01:46:25;18.47;;;8.83;;
17636;SDS011;8937;51.236;6.794;2023-03-03T01:54:49;23.73;;;11.03;;
17636;SDS011;8937;51.236;6.794;2023-03-03T02:03:13;26.30;;;13.27;;
17636;SDS011;8937;51.236;6.794;2023-03-03T02:11:35;31.00;;;14.07;;
17636;SDS011;8937;51.236;6.794;2023-03-03T02:19:59;28.43;;;13.70;;
17636;SDS011;8937;51.236;6.794;2023-03-03T02:28:25;27.67;;;12.67;;
17636;SDS011;8937;51.236;6.794;2023-03-03T02:36:48;31.33;;;15.27;;
17636;SDS011;8937;51.236;6.794;2023-03-03T02:45:10;22.07;;;11.20;;
17636;SDS011;8937;51.236;6.794;2023-03-03T02:53:32;25.63;;;12.67;;
17636;SDS011;8937;51.236;6.794;2023-03-03T03:01:55;26.57;;;13.13;;
17636;SDS011;8937;51.236;6.794;2023-03-03T03:10:16;21.77;;;10.87;;
17636;SDS011;8937;51.236;6.794;2023-03-03T03:18:40;23.53;;;11.30;;
17636;SDS011;8937;51.236;6.794;2023-03-03T03:27:01;28.53;;;12.63;;
17636;SDS011;8937;51.236;6.794;2023-03-03T03:35:24;26.80;;;12.60;;
17636;SDS011;8937;51.236;6.794;2023-03-03T03:43:45;24.30;;;11.27;;
17636;SDS011;8937;51.236;6.794;2023-03-03T03:52:08;24.13;;;10.57;;
17636;SDS011;8937;51.236;6.794;2023-03-03T04:00:29;25.40;;;11.17;;
17636;SDS011;8937;51.236;6.794;2023-03-03T04:08:52;31.57;;;13.37;;
17636;SDS011;8937;51.236;6.794;2023-03-03T04:17:15;23.03;;;10.87;;
17636;SDS011;8937;51.236;6.794;2023-03-03T04:25:38;25.27;;;11.83;;
17636;SDS011;8937;51.236;6.794;2023-03-03T04:34:00;22.97;;;10.20;;
17636;SDS011;8937;51.236;6.794;2023-03-03T04:42:22;25.83;;;10.43;;
17636;SDS011;8937;51.236;6.794;2023-03-03T04:50:43;30.93;;;13.97;;
17636;SDS011;8937;51.236;6.794;2023-03-03T04:59:06;34.43;;;14.30;;
17636;SDS011;8937;51.236;6.794;2023-03-03T05:07:28;22.13;;;10.53;;
17636;SDS011;8937;51.236;6.794;2023-03-03T05:15:50;20.23;;;9.33;;
17636;SDS011;8937;51.236;6.794;2023-03-03T05:24:14;22.97;;;10.30;;
17636;SDS011;8937;51.236;6.794;2023-03-03T05:32:37;19.90;;;8.83;;
17636;SDS011;8937;51.236;6.794;2023-03-03T05:40:58;26.00;;;10.97;;
17636;SDS011;8937;51.236;6.794;2023-03-03T05:49:21;23.20;;;10.43;;
17636;SDS011;8937;51.236;6.794;2023-03-03T05:57:42;23.27;;;9.53;;
17636;SDS011;8937;51.236;6.794;2023-03-03T06:06:05;20.23;;;8.77;;
17636;SDS011;8937;51.236;6.794;2023-03-03T06:14:28;19.27;;;9.20;;
17636;SDS011;8937;51.236;6.794;2023-03-03T06:22:51;20.00;;;8.53;;
17636;SDS011;8937;51.236;6.794;2023-03-03T06:31:12;17.70;;;8.30;;
17636;SDS011;8937;51.236;6.794;2023-03-03T06:39:34;16.63;;;8.10;;
17636;SDS011;8937;51.236;6.794;2023-03-03T06:47:56;15.63;;;7.67;;
17636;SDS011;8937;51.236;6.794;2023-03-03T06:56:19;19.40;;;8.20;;
17636;SDS011;8937;51.236;6.794;2023-03-03T07:04:40;16.17;;;7.40;;
17636;SDS011;8937;51.236;6.794;2023-03-03T07:13:16;12.17;;;7.03;;
17636;SDS011;8937;51.236;6.794;2023-03-03T07:21:37;14.17;;;7.93;;
17636;SDS011;8937;51.236;6.794;2023-03-03T07:30:18;12.67;;;6.63;;
17636;SDS011;8937;51.236;6.794;2023-03-03T07:38:52;17.50;;;7.80;;
17636;SDS011;8937;51.236;6.794;2023-03-03T07:47:18;14.13;;;6.73;;
17636;SDS011;8937;51.236;6.794;2023-03-03T07:55:40;18.27;;;7.97;;
17636;SDS011;8937;51.236;6.794;2023-03-03T08:04:04;18.87;;;7.87;;
17636;SDS011;8937;51.236;6.794;2023-03-03T08:12:36;20.57;;;8.43;;
17636;SDS011;8937;51.236;6.794;2023-03-03T08:21:00;19.07;;;7.97;;
17636;SDS011;8937;51.236;6.794;2023-03-03T08:29:23;20.77;;;9.47;;
17636;SDS011;8937;51.236;6.794;2023-03-03T08:37:45;15.87;;;8.00;;
17636;SDS011;8937;51.236;6.794;2023-03-03T08:46:07;14.77;;;7.87;;
17636;SDS011;8937;51.236;6.794;2023-03-03T08:54:30;18.80;;;8.27;;
17636;SDS011;8937;51.236;6.794;2023-03-03T09:02:52;19.53;;;8.97;;
17636;SDS011;8937;51.236;6.794;2023-03-03T09:11:14;21.93;;;10.27;;
17636;SDS011;8937;51.236;6.794;2023-03-03T09:19:40;18.40;;;9.40;;
17636;SDS011;8937;51.236;6.794;2023-03-03T09:28:07;19.20;;;9.80;;
17636;SDS011;8937;51.236;6.794;2023-03-03T09:36:40;22.00;;;9.87;;
17636;SDS011;8937;51.236;6.794;2023-03-03T09:45:12;18.83;;;8.63;;
17636;SDS011;8937;51.236;6.794;2023-03-03T09:53:41;19.57;;;9.07;;
17636;SDS011;8937;51.236;6.794;2023-03-03T10:02:18;17.23;;;7.83;;
17636;SDS011;8937;51.236;6.794;2023-03-03T10:10:44;21.07;;;8.70;;
17636;SDS011;8937;51.236;6.794;2023-03-03T10:19:12;19.73;;;9.37;;
17636;SDS011;8937;51.236;6.794;2023-03-03T10:27:42;19.10;;;8.70;;
17636;SDS011;8937;51.236;6.794;2023-03-03T10:36:11;17.83;;;7.67;;
17636;SDS011;8937;51.236;6.794;2023-03-03T10:44:42;17.33;;;7.97;;
17636;SDS011;8937;51.236;6.794;2023-03-03T10:53:13;12.90;;;6.53;;
17636;SDS011;8937;51.236;6.794;2023-03-03T11:01:41;19.23;;;7.73;;
17636;SDS011;8937;51.236;6.794;2023-03-03T11:10:20;16.30;;;7.60;;
17636;SDS011;8937;51.236;6.794;2023-03-03T11:18:47;16.57;;;7.70;;
17636;SDS011;8937;51.236;6.794;2023-03-03T11:27:16;21.57;;;8.73;;
17636;SDS011;8937;51.236;6.794;2023-03-03T11:35:43;16.90;;;7.67;;
17636;SDS011;8937;51.236;6.794;2023-03-03T11:44:16;15.17;;;6.97;;
17636;SDS011;8937;51.236;6.794;2023-03-03T11:52:39;16.50;;;6.63;;
17636;SDS011;8937;51.236;6.794;2023-03-03T12:01:06;16.17;;;6.97;;
17636;SDS011;8937;51.236;6.794;2023-03-03T12:09:32;14.37;;;6.77;;
17636;SDS011;8937;51.236;6.794;2023-03-03T12:18:01;14.77;;;6.73;;
17636;SDS011;8937;51.236;6.794;2023-03-03T12:26:24;16.03;;;7.27;;
17636;SDS011;8937;51.236;6.794;2023-03-03T12:34:50;17.10;;;8.63;;
17636;SDS011;8937;51.236;6.794;2023-03-03T12:43:16;18.90;;;8.30;;
17636;SDS011;8937;51.236;6.794;2023-03-03T12:52:01;14.10;;;6.90;;
17636;SDS011;8937;51.236;6.794;2023-03-03T13:00:27;19.87;;;9.27;;
17636;SDS011;8937;51.236;6.794;2023-03-03T13:08:53;23.43;;;10.00;;
17636;SDS011;8937;51.236;6.794;2023-03-03T13:17:20;19.73;;;8.13;;
17636;SDS011;8937;51.236;6.794;2023-03-03T13:25:46;19.27;;;8.73;;
17636;SDS011;8937;51.236;6.794;2023-03-03T13:34:12;16.23;;;7.77;;
17636;SDS011;8937;51.236;6.794;2023-03-03T13:42:38;15.03;;;7.33;;
17636;SDS011;8937;51.236;6.794;2023-03-03T13:51:01;16.27;;;7.27;;
17636;SDS011;8937;51.236;6.794;2023-03-03T13:59:26;12.40;;;6.97;;
17636;SDS011;8937;51.236;6.794;2023-03-03T14:07:53;19.30;;;10.13;;
17636;SDS011;8937;51.236;6.794;2023-03-03T14:16:18;17.97;;;9.27;;
17636;SDS011;8937;51.236;6.794;2023-03-03T14:24:55;15.33;;;7.83;;
17636;SDS011;8937;51.236;6.794;2023-03-03T14:33:21;13.30;;;6.33;;
17636;SDS011;8937;51.236;6.794;2023-03-03T14:41:45;13.30;;;6.57;;
17636;SDS011;8937;51.236;6.794;2023-03-03T14:50:26;18.37;;;8.30;;
17636;SDS011;8937;51.236;6.794;2023-03-03T14:58:49;14.93;;;7.43;;
17636;SDS011;8937;51.236;6.794;2023-03-03T15:07:19;11.73;;;7.10;;
17636;SDS011;8937;51.236;6.794;2023-03-03T15:15:48;14.23;;;7.60;;
17636;SDS011;8937;51.236;6.794;2023-03-03T15:24:14;14.37;;;7.27;;
17636;SDS011;8937;51.236;6.794;2023-03-03T15:32:40;12.83;;;6.77;;
17636;SDS011;8937;51.236;6.794;2023-03-03T15:41:10;16.83;;;8.90;;
17636;SDS011;8937;51.236;6.794;2023-03-03T15:49:47;16.67;;;9.63;;
17636;SDS011;8937;51.236;6.794;2023-03-03T15:58:19;14.63;;;8.00;;
17636;SDS011;8937;51.236;6.794;2023-03-03T16:06:45;12.83;;;7.60;;
17636;SDS011;8937;51.236;6.794;2023-03-03T16:15:16;13.80;;;8.07;;
17636;SDS011;8937;51.236;6.794;2023-03-03T16:23:43;11.80;;;7.27;;
17636;SDS011;8937;51.236;6.794;2023-03-03T16:32:09;12.07;;;7.27;;
17636;SDS011;8937;51.236;6.794;2023-03-03T16:40:32;13.67;;;7.50;;
17636;SDS011;8937;51.236;6.794;2023-03-03T16:48:59;11.43;;;6.63;;
17636;SDS011;8937;51.236;6.794;2023-03-03T16:57:23;11.80;;;6.43;;
17636;SDS011;8937;51.236;6.794;2023-03-03T17:05:50;12.67;;;7.67;;
17636;SDS011;8937;51.236;6.794;2023-03-03T17:14:22;14.47;;;7.33;;
17636;SDS011;8937;51.236;6.794;2023-03-03T17:22:49;13.23;;;6.90;;
17636;SDS011;8937;51.236;6.794;2023-03-03T17:31:12;11.00;;;5.83;;
17636;SDS011;8937;51.236;6.794;2023-03-03T17:39:43;10.53;;;6.20;;
17636;SDS011;8937;51.236;6.794;2023-03-03T17:56:55;10.80;;;6.47;;
17636;SDS011;8937;51.236;6.794;2023-03-03T18:05:31;13.03;;;7.17;;
17636;SDS011;8937;51.236;6.794;2023-03-03T18:14:07;13.10;;;6.90;;
17636;SDS011;8937;51.236;6.794;2023-03-03T18:22:40;14.50;;;7.27;;
17636;SDS011;8937;51.236;6.794;2023-03-03T18:31:13;14.53;;;7.40;;
17636;SDS011;8937;51.236;6.794;2023-03-03T18:39:36;13.93;;;8.03;;
17636;SDS011;8937;51.236;6.794;2023-03-03T18:48:06;13.37;;;7.13;;
17636;SDS011;8937;51.236;6.794;2023-03-03T18:56:40;10.10;;;6.90;;
17636;SDS011;8937;51.236;6.794;2023-03-03T19:05:08;15.47;;;7.93;;
17636;SDS011;8937;51.236;6.794;2023-03-03T19:13:43;18.53;;;9.10;;
17636;SDS011;8937;51.236;6.794;2023-03-03T19:22:18;16.37;;;8.90;;
17636;SDS011;8937;51.236;6.794;2023-03-03T19:30:42;17.13;;;9.97;;
17636;SDS011;8937;51.236;6.794;2023-03-03T19:39:17;18.30;;;9.03;;
17636;SDS011;8937;51.236;6.794;2023-03-03T19:47:42;17.63;;;9.63;;
17636;SDS011;8937;51.236;6.794;2023-03-03T19:56:11;16.37;;;9.20;;
17636;SDS011;8937;51.236;6.794;2023-03-03T20:04:39;20.07;;;9.90;;
17636;SDS011;8937;51.236;6.794;2023-03-03T20:13:07;15.87;;;8.97;;
17636;SDS011;8937;51.236;6.794;2023-03-03T20:21:32;14.73;;;8.40;;
17636;SDS011;8937;51.236;6.794;2023-03-03T20:38:40;19.53;;;9.97;;
17636;SDS011;8937;51.236;6.794;2023-03-03T20:47:03;22.33;;;11.10;;
17636;SDS011;8937;51.236;6.794;2023-03-03T20:55:31;19.23;;;10.03;;
17636;SDS011;8937;51.236;6.794;2023-03-03T21:03:54;16.30;;;9.80;;
17636;SDS011;8937;51.236;6.794;2023-03-03T21:12:37;17.50;;;9.50;;
17636;SDS011;8937;51.236;6.794;2023-03-03T21:21:01;16.33;;;9.23;;
17636;SDS011;8937;51.236;6.794;2023-03-03T21:29:25;20.43;;;10.33;;
17636;SDS011;8937;51.236;6.794;2023-03-03T21:37:47;19.27;;;8.27;;
17636;SDS011;8937;51.236;6.794;2023-03-03T21:46:11;16.77;;;7.87;;
17636;SDS011;8937;51.236;6.794;2023-03-03T21:54:32;13.57;;;7.60;;
17636;SDS011;8937;51.236;6.794;2023-03-03T22:02:55;16.53;;;8.70;;
17636;SDS011;8937;51.236;6.794;2023-03-03T22:11:17;14.47;;;7.63;;
17636;SDS011;8937;51.236;6.794;2023-03-03T22:19:40;13.10;;;7.20;;
17636;SDS011;8937;51.236;6.794;2023-03-03T22:28:01;10.33;;;6.13;;
17636;SDS011;8937;51.236;6.794;2023-03-03T22:36:24;10.13;;;5.40;;
17636;SDS011;8937;51.236;6.794;2023-03-03T22:44:46;9.87;;;6.60;;
17636;SDS011;8937;51.236;6.794;2023-03-03T22:53:08;9.20;;;5.50;;
17636;SDS011;8937;51.236;6.794;2023-03-03T23:01:30;8.57;;;5.30;;
17636;SDS011;8937;51.236;6.794;2023-03-03T23:09:53;10.27;;;6.23;;
17636;SDS011;8937;51.236;6.794;2023-03-03T23:18:14;8.93;;;4.90;;
17636;SDS011;8937;51.236;6.794;2023-03-03T23:26:37;7.77;;;4.00;;
17636;SDS011;8937;51.236;6.794;2023-03-03T23:34:59;3.67;;;2.80;;
17636;SDS011;8937;51.236;6.794;2023-03-03T23:43:22;6.40;;;2.70;;
17636;SDS011;8937;51.236;6.794;2023-03-03T23:51:43;3.83;;;2.50;;
